createdAt,value
2018-06-16T00:00:15.854Z,21.90
2018-06-16T00:00:47.488Z,21.91
2018-06-16T00:01:19.060Z,21.91
2018-06-16T00:01:50.741Z,21.91
2018-06-16T00:02:22.308Z,21.91
2018-06-16T00:02:53.885Z,21.90
2018-06-16T00:03:25.485Z,21.88
2018-06-16T00:03:57.064Z,21.90
2018-06-16T00:04:28.666Z,21.88
2018-06-16T00:05:00.328Z,21.85
2018-06-16T00:05:31.904Z,21.88
2018-06-16T00:06:03.507Z,21.89
2018-06-16T00:06:35.114Z,21.89
2018-06-16T00:07:06.689Z,21.89
2018-06-16T00:07:38.260Z,21.88
2018-06-16T00:08:09.828Z,21.86
2018-06-16T00:08:41.409Z,21.87
2018-06-16T00:09:13.013Z,21.86
2018-06-16T00:09:44.617Z,21.88
2018-06-16T00:10:16.236Z,21.89
2018-06-16T00:10:47.832Z,21.89
2018-06-16T00:11:19.417Z,21.90
2018-06-16T00:11:51.021Z,21.89
2018-06-16T00:12:22.596Z,21.87
2018-06-16T00:12:54.206Z,21.88
2018-06-16T00:13:25.800Z,21.85
2018-06-16T00:13:57.450Z,21.87
2018-06-16T00:14:29.053Z,21.88
2018-06-16T00:15:00.661Z,21.87
2018-06-16T00:15:32.240Z,21.87
2018-06-16T00:16:03.812Z,21.85
2018-06-16T00:16:35.390Z,21.88
2018-06-16T00:17:06.974Z,21.88
2018-06-16T00:17:38.555Z,21.89
2018-06-16T00:18:10.143Z,21.89
2018-06-16T00:18:41.800Z,21.89
2018-06-16T00:19:13.376Z,21.89
2018-06-16T00:19:44.958Z,21.90
2018-06-16T00:20:16.581Z,21.88
2018-06-16T00:20:48.169Z,21.91
2018-06-16T00:21:19.750Z,21.92
2018-06-16T00:21:51.320Z,21.92
2018-06-16T00:22:22.897Z,21.92
2018-06-16T00:22:54.487Z,21.92
2018-06-16T00:23:26.060Z,21.91
2018-06-16T00:23:57.632Z,21.93
2018-06-16T00:24:29.274Z,21.93
2018-06-16T00:25:00.863Z,21.93
2018-06-16T00:25:32.438Z,21.92
2018-06-16T00:26:04.017Z,21.93
2018-06-16T00:26:35.607Z,21.92
2018-06-16T00:27:07.212Z,21.91
2018-06-16T00:27:38.822Z,21.92
2018-06-16T00:28:10.396Z,21.91
2018-06-16T00:28:42.038Z,21.92
2018-06-16T00:29:13.625Z,21.94
2018-06-16T00:29:45.264Z,21.94
2018-06-16T00:30:16.863Z,21.93
2018-06-16T00:30:48.465Z,21.92
2018-06-16T00:31:20.040Z,21.92
2018-06-16T00:31:51.612Z,21.92
2018-06-16T00:32:23.194Z,21.90
2018-06-16T00:32:54.786Z,21.93
2018-06-16T00:33:26.360Z,21.92
2018-06-16T00:33:57.941Z,21.93
2018-06-16T00:34:29.531Z,21.92
2018-06-16T00:35:01.154Z,21.93
2018-06-16T00:35:32.749Z,21.92
2018-06-16T00:36:04.331Z,21.92
2018-06-16T00:36:35.909Z,21.93
2018-06-16T00:37:07.509Z,21.92
2018-06-16T00:37:39.094Z,21.93
2018-06-16T00:38:10.674Z,21.92
2018-06-16T00:38:42.281Z,21.93
2018-06-16T00:39:13.889Z,21.92
2018-06-16T00:39:45.469Z,21.92
2018-06-16T00:40:17.241Z,21.92
2018-06-16T00:40:48.850Z,21.92
2018-06-16T00:41:20.461Z,21.92
2018-06-16T00:41:52.649Z,21.92
2018-06-16T00:42:24.243Z,21.91
2018-06-16T00:42:55.850Z,21.91
2018-06-16T00:43:27.433Z,21.92
2018-06-16T00:43:59.034Z,21.92
2018-06-16T00:44:30.618Z,21.91
2018-06-16T00:45:02.198Z,21.91
2018-06-16T00:45:33.835Z,21.91
2018-06-16T00:46:05.437Z,21.92
2018-06-16T00:46:37.022Z,21.93
2018-06-16T00:47:08.616Z,21.93
2018-06-16T00:47:40.321Z,21.93
2018-06-16T00:48:11.895Z,21.93
2018-06-16T00:48:43.497Z,21.93
2018-06-16T00:49:15.109Z,21.93
2018-06-16T00:49:46.684Z,21.92
2018-06-16T00:50:18.275Z,21.93
2018-06-16T00:50:49.929Z,21.91
2018-06-16T00:51:21.541Z,21.93
2018-06-16T00:51:53.156Z,21.93
2018-06-16T00:52:24.744Z,21.92
2018-06-16T00:52:56.356Z,21.92
2018-06-16T00:53:27.952Z,21.90
2018-06-16T00:53:59.528Z,21.92
2018-06-16T00:54:31.119Z,21.93
2018-06-16T00:55:02.716Z,21.93
2018-06-16T00:55:34.313Z,21.94
2018-06-16T00:56:05.933Z,21.94
2018-06-16T00:56:37.509Z,21.93
2018-06-16T00:57:09.094Z,21.95
2018-06-16T00:57:40.714Z,21.94
2018-06-16T00:58:12.317Z,21.94
2018-06-16T00:58:43.912Z,21.96
2018-06-16T00:59:15.597Z,21.94
2018-06-16T00:59:47.205Z,21.94
2018-06-16T01:00:18.813Z,21.93
2018-06-16T01:00:50.401Z,21.92
2018-06-16T01:01:22.005Z,21.91
2018-06-16T01:01:53.608Z,21.91
2018-06-16T01:02:25.190Z,21.91
2018-06-16T01:02:56.800Z,21.91
2018-06-16T01:03:28.392Z,21.91
2018-06-16T01:03:59.988Z,21.90
2018-06-16T01:04:31.566Z,21.90
2018-06-16T01:05:03.159Z,21.90
2018-06-16T01:05:34.756Z,21.91
2018-06-16T01:06:06.341Z,21.91
2018-06-16T01:06:37.949Z,21.91
2018-06-16T01:07:09.533Z,21.90
2018-06-16T01:07:41.168Z,21.92
2018-06-16T01:08:12.748Z,21.91
2018-06-16T01:08:44.325Z,21.91
2018-06-16T01:09:15.909Z,21.92
2018-06-16T01:09:47.526Z,21.90
2018-06-16T01:10:19.149Z,21.89
2018-06-16T01:10:50.773Z,21.90
2018-06-16T01:11:22.353Z,21.89
2018-06-16T01:11:53.958Z,21.88
2018-06-16T01:12:25.532Z,21.87
2018-06-16T01:12:57.124Z,21.87
2018-06-16T01:13:28.696Z,21.88
2018-06-16T01:14:00.278Z,21.89
2018-06-16T01:14:31.902Z,21.89
2018-06-16T01:15:03.512Z,21.89
2018-06-16T01:15:35.093Z,21.89
2018-06-16T01:16:06.702Z,21.90
2018-06-16T01:16:38.290Z,21.91
2018-06-16T01:17:09.956Z,21.91
2018-06-16T01:17:41.525Z,21.91
2018-06-16T01:18:13.094Z,21.92
2018-06-16T01:18:44.697Z,21.93
2018-06-16T01:19:16.292Z,21.91
2018-06-16T01:19:47.936Z,21.91
2018-06-16T01:20:19.531Z,21.91
2018-06-16T01:20:51.129Z,21.93
2018-06-16T01:21:22.780Z,21.94
2018-06-16T01:21:54.368Z,21.96
2018-06-16T01:22:25.955Z,21.94
2018-06-16T01:22:57.541Z,21.94
2018-06-16T01:23:29.146Z,21.93
2018-06-16T01:24:00.753Z,21.93
2018-06-16T01:24:32.361Z,21.93
2018-06-16T01:25:03.998Z,21.94
2018-06-16T01:25:35.611Z,21.94
2018-06-16T01:26:07.204Z,21.94
2018-06-16T01:26:38.808Z,21.93
2018-06-16T01:27:10.408Z,21.95
2018-06-16T01:27:41.993Z,21.93
2018-06-16T01:28:13.574Z,21.94
2018-06-16T01:28:45.177Z,21.94
2018-06-16T01:29:16.786Z,21.94
2018-06-16T01:29:48.425Z,21.94
2018-06-16T01:30:20.015Z,21.94
2018-06-16T01:30:51.646Z,21.93
2018-06-16T01:31:23.231Z,21.93
2018-06-16T01:31:54.812Z,21.92
2018-06-16T01:32:26.412Z,21.92
2018-06-16T01:32:58.021Z,21.92
2018-06-16T01:33:29.696Z,21.93
2018-06-16T01:34:01.278Z,21.92
2018-06-16T01:34:32.848Z,21.93
2018-06-16T01:35:04.430Z,21.92
2018-06-16T01:35:36.034Z,21.91
2018-06-16T01:36:07.604Z,21.91
2018-06-16T01:36:39.208Z,21.92
2018-06-16T01:37:10.806Z,21.92
2018-06-16T01:37:42.408Z,21.92
2018-06-16T01:38:13.989Z,21.93
2018-06-16T01:38:45.569Z,21.91
2018-06-16T01:39:17.193Z,21.92
2018-06-16T01:39:48.794Z,21.91
2018-06-16T01:40:20.423Z,21.92
2018-06-16T01:40:52.029Z,21.91
2018-06-16T01:41:23.614Z,21.91
2018-06-16T01:41:55.193Z,21.91
2018-06-16T01:42:26.807Z,21.91
2018-06-16T01:42:58.384Z,21.91
2018-06-16T01:43:30.996Z,21.91
2018-06-16T01:44:02.610Z,21.92
2018-06-16T01:44:34.242Z,21.93
2018-06-16T01:45:05.869Z,21.93
2018-06-16T01:45:37.451Z,21.93
2018-06-16T01:46:09.059Z,21.94
2018-06-16T01:46:40.669Z,21.94
2018-06-16T01:47:12.281Z,21.95
2018-06-16T01:47:43.881Z,21.95
2018-06-16T01:48:15.466Z,21.94
2018-06-16T01:48:47.060Z,21.92
2018-06-16T01:49:18.647Z,21.93
2018-06-16T01:49:50.230Z,21.92
2018-06-16T01:50:21.824Z,21.91
2018-06-16T01:50:53.425Z,21.92
2018-06-16T01:51:25.074Z,21.90
2018-06-16T01:51:56.677Z,21.92
2018-06-16T01:52:28.287Z,21.92
2018-06-16T01:52:59.897Z,21.92
2018-06-16T01:53:31.506Z,21.91
2018-06-16T01:54:03.090Z,21.95
2018-06-16T01:54:34.677Z,21.94
2018-06-16T01:55:06.321Z,21.93
2018-06-16T01:55:37.897Z,21.93
2018-06-16T01:56:09.539Z,21.93
2018-06-16T01:56:41.141Z,21.94
2018-06-16T01:57:12.722Z,21.94
2018-06-16T01:57:44.292Z,21.92
2018-06-16T01:58:15.884Z,21.93
2018-06-16T01:58:47.467Z,21.93
2018-06-16T01:59:19.057Z,21.93
2018-06-16T01:59:50.682Z,21.92
2018-06-16T02:00:22.276Z,21.92
2018-06-16T02:00:53.852Z,21.93
2018-06-16T02:01:25.420Z,21.94
2018-06-16T02:01:57.025Z,21.95
2018-06-16T02:02:28.685Z,21.94
2018-06-16T02:03:00.266Z,21.94
2018-06-16T02:03:31.860Z,21.94
2018-06-16T02:04:03.465Z,21.93
2018-06-16T02:04:35.073Z,21.93
2018-06-16T02:05:06.657Z,21.93
2018-06-16T02:05:38.241Z,21.91
2018-06-16T02:06:09.829Z,21.92
2018-06-16T02:06:41.435Z,21.92
2018-06-16T02:07:13.026Z,21.94
2018-06-16T02:07:44.669Z,21.93
2018-06-16T02:08:16.274Z,21.93
2018-06-16T02:08:47.977Z,21.91
2018-06-16T02:09:19.642Z,21.91
2018-06-16T02:09:51.543Z,21.93
2018-06-16T02:10:23.152Z,21.94
2018-06-16T02:10:54.757Z,21.95
2018-06-16T02:11:26.345Z,21.93
2018-06-16T02:11:57.925Z,21.94
2018-06-16T02:12:29.529Z,21.94
2018-06-16T02:13:01.109Z,21.87
2018-06-16T02:13:32.689Z,21.94
2018-06-16T02:14:04.313Z,21.96
2018-06-16T02:14:35.880Z,21.95
2018-06-16T02:15:07.458Z,21.95
2018-06-16T02:15:39.066Z,21.96
2018-06-16T02:16:10.658Z,21.96
2018-06-16T02:16:42.225Z,21.96
2018-06-16T02:17:13.834Z,21.96
2018-06-16T02:17:45.485Z,21.94
2018-06-16T02:18:17.066Z,21.97
2018-06-16T02:18:48.665Z,21.97
2018-06-16T02:19:20.313Z,21.96
2018-06-16T02:19:51.898Z,21.97
2018-06-16T02:20:23.514Z,21.97
2018-06-16T02:20:55.092Z,21.97
2018-06-16T02:21:26.674Z,22.00
2018-06-16T02:21:58.278Z,22.03
2018-06-16T02:22:29.890Z,22.02
2018-06-16T02:23:01.502Z,22.02
2018-06-16T02:23:33.109Z,22.02
2018-06-16T02:24:04.703Z,22.03
2018-06-16T02:24:36.365Z,21.95
2018-06-16T02:25:07.940Z,22.04
2018-06-16T02:25:39.512Z,22.04
2018-06-16T02:26:11.091Z,22.03
2018-06-16T02:26:42.679Z,22.01
2018-06-16T02:27:14.289Z,22.01
2018-06-16T02:27:45.874Z,21.99
2018-06-16T02:28:17.483Z,22.01
2018-06-16T02:28:49.065Z,22.02
2018-06-16T02:29:20.677Z,22.03
2018-06-16T02:29:52.329Z,22.03
2018-06-16T02:30:23.941Z,22.02
2018-06-16T02:30:55.553Z,22.02
2018-06-16T02:31:27.142Z,22.01
2018-06-16T02:31:58.831Z,22.01
2018-06-16T02:32:30.431Z,22.01
2018-06-16T02:33:02.028Z,22.02
2018-06-16T02:33:33.642Z,22.02
2018-06-16T02:34:05.226Z,22.02
2018-06-16T02:34:37.005Z,22.01
2018-06-16T02:35:08.609Z,22.01
2018-06-16T02:35:40.257Z,21.98
2018-06-16T02:36:11.829Z,21.99
2018-06-16T02:36:43.403Z,21.98
2018-06-16T02:37:15.006Z,21.98
2018-06-16T02:37:46.613Z,21.97
2018-06-16T02:38:18.228Z,21.97
2018-06-16T02:38:49.829Z,21.97
2018-06-16T02:39:21.408Z,21.98
2018-06-16T02:39:53.033Z,21.98
2018-06-16T02:40:24.637Z,21.97
2018-06-16T02:40:56.226Z,21.94
2018-06-16T02:41:27.833Z,21.96
2018-06-16T02:41:59.426Z,21.96
2018-06-16T02:42:31.002Z,21.97
2018-06-16T02:43:02.602Z,21.98
2018-06-16T02:43:34.214Z,21.99
2018-06-16T02:44:05.818Z,21.97
2018-06-16T02:44:37.396Z,21.97
2018-06-16T02:45:09.006Z,21.97
2018-06-16T02:45:40.594Z,21.97
2018-06-16T02:46:12.178Z,21.97
2018-06-16T02:46:43.764Z,21.97
2018-06-16T02:47:15.345Z,21.97
2018-06-16T02:47:46.938Z,21.97
2018-06-16T02:48:18.532Z,21.96
2018-06-16T02:48:50.130Z,21.97
2018-06-16T02:49:21.718Z,21.97
2018-06-16T02:49:53.288Z,21.96
2018-06-16T02:50:25.009Z,21.97
2018-06-16T02:50:56.574Z,21.95
2018-06-16T02:51:28.163Z,21.95
2018-06-16T02:51:59.736Z,21.98
2018-06-16T02:52:31.343Z,21.97
2018-06-16T02:53:02.957Z,21.98
2018-06-16T02:53:34.543Z,21.98
2018-06-16T02:54:06.193Z,21.98
2018-06-16T02:54:37.797Z,21.97
2018-06-16T02:55:09.405Z,21.96
2018-06-16T02:55:40.990Z,21.95
2018-06-16T02:56:12.598Z,21.96
2018-06-16T02:56:44.253Z,21.95
2018-06-16T02:57:15.837Z,21.94
2018-06-16T02:57:47.418Z,21.95
2018-06-16T02:58:19.002Z,21.95
2018-06-16T02:58:50.576Z,21.96
2018-06-16T02:59:22.200Z,21.96
2018-06-16T02:59:53.778Z,21.95
2018-06-16T03:00:25.345Z,21.97
2018-06-16T03:00:56.975Z,21.97
2018-06-16T03:01:28.553Z,21.98
2018-06-16T03:02:00.125Z,21.97
2018-06-16T03:02:31.710Z,21.96
2018-06-16T03:03:03.281Z,21.97
2018-06-16T03:03:34.852Z,21.95
2018-06-16T03:04:06.439Z,21.96
2018-06-16T03:04:38.026Z,21.96
2018-06-16T03:05:09.625Z,21.96
2018-06-16T03:05:41.250Z,21.96
2018-06-16T03:06:12.841Z,21.95
2018-06-16T03:06:44.418Z,21.96
2018-06-16T03:07:16.002Z,21.95
2018-06-16T03:07:47.576Z,21.97
2018-06-16T03:08:19.181Z,21.96
2018-06-16T03:08:50.770Z,21.96
2018-06-16T03:09:22.362Z,21.96
2018-06-16T03:09:54.018Z,21.97
2018-06-16T03:10:25.614Z,21.96
2018-06-16T03:10:57.190Z,21.95
2018-06-16T03:11:28.788Z,21.97
2018-06-16T03:12:00.457Z,21.97
2018-06-16T03:12:32.029Z,21.96
2018-06-16T03:13:03.617Z,21.87
2018-06-16T03:13:35.211Z,21.95
2018-06-16T03:14:06.795Z,21.97
2018-06-16T03:14:38.401Z,21.96
2018-06-16T03:15:10.064Z,21.97
2018-06-16T03:15:41.648Z,21.97
2018-06-16T03:16:13.218Z,21.96
2018-06-16T03:16:44.825Z,21.94
2018-06-16T03:17:16.413Z,21.96
2018-06-16T03:17:48.032Z,21.97
2018-06-16T03:18:19.641Z,21.96
2018-06-16T03:18:51.235Z,21.97
2018-06-16T03:19:22.832Z,21.97
2018-06-16T03:19:54.417Z,21.97
2018-06-16T03:20:26.025Z,21.95
2018-06-16T03:20:57.665Z,21.95
2018-06-16T03:21:29.269Z,21.97
2018-06-16T03:22:00.885Z,21.97
2018-06-16T03:22:32.489Z,21.96
2018-06-16T03:23:04.099Z,21.95
2018-06-16T03:23:35.704Z,21.95
2018-06-16T03:24:07.345Z,21.95
2018-06-16T03:24:38.956Z,21.94
2018-06-16T03:25:10.561Z,21.95
2018-06-16T03:25:42.170Z,21.96
2018-06-16T03:26:13.781Z,21.96
2018-06-16T03:26:45.366Z,21.95
2018-06-16T03:27:16.932Z,21.96
2018-06-16T03:27:48.533Z,21.97
2018-06-16T03:28:20.138Z,21.97
2018-06-16T03:28:51.955Z,21.97
2018-06-16T03:29:23.566Z,21.98
2018-06-16T03:29:55.176Z,21.98
2018-06-16T03:30:26.769Z,21.97
2018-06-16T03:30:58.497Z,21.97
2018-06-16T03:31:30.110Z,21.99
2018-06-16T03:32:01.699Z,21.98
2018-06-16T03:32:33.340Z,21.98
2018-06-16T03:33:04.926Z,21.96
2018-06-16T03:33:36.596Z,21.98
2018-06-16T03:34:08.173Z,21.97
2018-06-16T03:34:39.782Z,21.98
2018-06-16T03:35:11.374Z,21.98
2018-06-16T03:35:42.948Z,21.98
2018-06-16T03:36:14.565Z,21.99
2018-06-16T03:36:46.145Z,21.97
2018-06-16T03:37:17.739Z,21.96
2018-06-16T03:37:49.336Z,21.96
2018-06-16T03:38:20.925Z,21.96
2018-06-16T03:38:52.511Z,21.97
2018-06-16T03:39:24.108Z,21.96
2018-06-16T03:39:55.718Z,21.97
2018-06-16T03:40:27.297Z,21.97
2018-06-16T03:40:58.891Z,21.98
2018-06-16T03:41:30.488Z,21.97
2018-06-16T03:42:02.074Z,21.98
2018-06-16T03:42:33.693Z,21.98
2018-06-16T03:43:05.326Z,21.98
2018-06-16T03:43:36.910Z,21.98
2018-06-16T03:44:08.489Z,21.99
2018-06-16T03:44:40.090Z,21.99
2018-06-16T03:45:11.684Z,21.98
2018-06-16T03:45:43.274Z,21.97
2018-06-16T03:46:14.858Z,21.97
2018-06-16T03:46:46.454Z,21.96
2018-06-16T03:47:18.063Z,21.95
2018-06-16T03:47:49.670Z,21.95
2018-06-16T03:48:21.244Z,21.95
2018-06-16T03:48:52.821Z,21.96
2018-06-16T03:49:24.469Z,21.96
2018-06-16T03:49:56.118Z,21.97
2018-06-16T03:50:27.729Z,21.97
2018-06-16T03:50:59.314Z,21.96
2018-06-16T03:51:30.884Z,21.96
2018-06-16T03:52:02.486Z,21.96
2018-06-16T03:52:34.093Z,21.96
2018-06-16T03:53:05.706Z,21.97
2018-06-16T03:53:37.309Z,21.96
2018-06-16T03:54:08.893Z,21.95
2018-06-16T03:54:40.466Z,21.94
2018-06-16T03:55:12.070Z,21.95
2018-06-16T03:55:43.667Z,21.95
2018-06-16T03:56:15.240Z,21.94
2018-06-16T03:56:46.820Z,21.97
2018-06-16T03:57:18.388Z,22.02
2018-06-16T03:57:49.993Z,22.02
2018-06-16T03:58:21.574Z,22.03
2018-06-16T03:58:53.649Z,22.02
2018-06-16T03:59:25.250Z,22.00
2018-06-16T03:59:56.823Z,21.99
2018-06-16T04:00:28.407Z,21.99
2018-06-16T04:01:00.040Z,21.99
2018-06-16T04:01:31.649Z,21.97
2018-06-16T04:02:03.237Z,21.98
2018-06-16T04:02:34.832Z,21.99
2018-06-16T04:03:06.445Z,21.99
2018-06-16T04:03:38.056Z,21.98
2018-06-16T04:04:09.673Z,21.97
2018-06-16T04:04:41.277Z,21.96
2018-06-16T04:05:12.862Z,21.95
2018-06-16T04:05:44.524Z,21.96
2018-06-16T04:06:16.202Z,21.95
2018-06-16T04:06:47.792Z,21.95
2018-06-16T04:07:19.372Z,21.94
2018-06-16T04:07:50.953Z,21.93
2018-06-16T04:08:22.530Z,21.93
2018-06-16T04:08:54.100Z,21.92
2018-06-16T04:09:25.717Z,21.92
2018-06-16T04:09:57.289Z,21.92
2018-06-16T04:10:28.889Z,21.91
2018-06-16T04:11:00.478Z,21.91
2018-06-16T04:11:32.123Z,21.92
2018-06-16T04:12:03.734Z,21.91
2018-06-16T04:12:35.346Z,21.90
2018-06-16T04:13:06.964Z,21.91
2018-06-16T04:13:38.578Z,21.90
2018-06-16T04:14:10.164Z,21.90
2018-06-16T04:14:41.769Z,21.90
2018-06-16T04:15:13.364Z,21.90
2018-06-16T04:15:44.946Z,21.90
2018-06-16T04:16:16.516Z,21.90
2018-06-16T04:16:48.109Z,21.90
2018-06-16T04:17:19.713Z,21.89
2018-06-16T04:17:51.302Z,21.88
2018-06-16T04:18:22.933Z,21.87
2018-06-16T04:18:54.580Z,21.90
2018-06-16T04:19:26.176Z,21.90
2018-06-16T04:19:57.790Z,21.90
2018-06-16T04:20:29.370Z,21.90
2018-06-16T04:21:00.953Z,21.91
2018-06-16T04:21:32.575Z,21.91
2018-06-16T04:22:04.177Z,21.91
2018-06-16T04:22:35.761Z,21.90
2018-06-16T04:23:07.377Z,21.91
2018-06-16T04:23:39.057Z,21.91
2018-06-16T04:24:10.662Z,21.91
2018-06-16T04:24:42.260Z,21.92
2018-06-16T04:25:13.832Z,21.93
2018-06-16T04:25:45.434Z,21.94
2018-06-16T04:26:17.021Z,21.94
2018-06-16T04:26:48.589Z,21.94
2018-06-16T04:27:20.173Z,21.93
2018-06-16T04:27:51.744Z,21.92
2018-06-16T04:28:23.365Z,21.92
2018-06-16T04:28:54.957Z,21.92
2018-06-16T04:29:26.584Z,21.92
2018-06-16T04:29:58.165Z,21.90
2018-06-16T04:30:29.769Z,21.93
2018-06-16T04:31:01.375Z,21.91
2018-06-16T04:31:33.012Z,21.92
2018-06-16T04:32:04.603Z,21.91
2018-06-16T04:32:36.210Z,21.93
2018-06-16T04:33:07.823Z,21.93
2018-06-16T04:33:39.535Z,21.93
2018-06-16T04:34:11.128Z,21.93
2018-06-16T04:34:42.741Z,21.94
2018-06-16T04:35:14.382Z,21.93
2018-06-16T04:35:45.965Z,21.93
2018-06-16T04:36:17.532Z,21.91
2018-06-16T04:36:49.118Z,21.92
2018-06-16T04:37:20.712Z,21.91
2018-06-16T04:37:52.307Z,21.91
2018-06-16T04:38:23.946Z,21.91
2018-06-16T04:38:55.533Z,21.91
2018-06-16T04:39:27.100Z,21.91
2018-06-16T04:39:58.706Z,21.91
2018-06-16T04:40:30.330Z,21.89
2018-06-16T04:41:01.920Z,21.92
2018-06-16T04:41:33.500Z,21.93
2018-06-16T04:42:05.110Z,21.95
2018-06-16T04:42:36.697Z,21.95
2018-06-16T04:43:08.287Z,21.92
2018-06-16T04:43:39.932Z,21.93
2018-06-16T04:44:11.500Z,21.92
2018-06-16T04:44:43.101Z,21.92
2018-06-16T04:45:14.697Z,21.93
2018-06-16T04:45:46.366Z,21.92
2018-06-16T04:46:17.934Z,21.94
2018-06-16T04:46:49.518Z,21.93
2018-06-16T04:47:21.113Z,21.93
2018-06-16T04:47:52.702Z,21.93
2018-06-16T04:48:24.301Z,21.92
2018-06-16T04:48:55.905Z,21.92
2018-06-16T04:49:27.513Z,21.92
2018-06-16T04:49:59.121Z,21.92
2018-06-16T04:50:30.777Z,21.91
2018-06-16T04:51:02.433Z,21.91
2018-06-16T04:51:34.084Z,21.91
2018-06-16T04:52:05.679Z,21.90
2018-06-16T04:52:37.275Z,21.91
2018-06-16T04:53:08.848Z,21.90
2018-06-16T04:53:40.510Z,21.90
2018-06-16T04:54:12.103Z,21.91
2018-06-16T04:54:43.690Z,21.90
2018-06-16T04:55:15.259Z,21.90
2018-06-16T04:55:46.867Z,21.91
2018-06-16T04:56:18.464Z,21.91
2018-06-16T04:56:50.070Z,21.93
2018-06-16T04:57:21.654Z,21.92
2018-06-16T04:57:53.227Z,21.92
2018-06-16T04:58:24.809Z,21.93
2018-06-16T04:58:56.400Z,21.93
2018-06-16T04:59:27.995Z,21.93
2018-06-16T04:59:59.568Z,21.94
2018-06-16T05:00:31.227Z,21.94
2018-06-16T05:01:02.808Z,21.95
2018-06-16T05:01:34.389Z,21.95
2018-06-16T05:02:05.988Z,21.93
2018-06-16T05:02:37.560Z,21.93
2018-06-16T05:03:09.127Z,21.93
2018-06-16T05:03:40.709Z,21.94
2018-06-16T05:04:12.313Z,21.92
2018-06-16T05:04:43.925Z,21.93
2018-06-16T05:05:15.540Z,21.93
2018-06-16T05:05:47.179Z,21.94
2018-06-16T05:06:18.785Z,21.93
2018-06-16T05:06:50.381Z,21.93
2018-06-16T05:07:21.986Z,21.93
2018-06-16T05:07:53.574Z,21.93
2018-06-16T05:08:25.182Z,21.93
2018-06-16T05:08:56.819Z,21.90
2018-06-16T05:09:28.434Z,21.93
2018-06-16T05:10:00.023Z,21.95
2018-06-16T05:10:31.637Z,21.95
2018-06-16T05:11:03.286Z,21.93
2018-06-16T05:11:34.894Z,21.95
2018-06-16T05:12:06.477Z,21.95
2018-06-16T05:12:38.056Z,21.97
2018-06-16T05:13:09.665Z,21.97
2018-06-16T05:13:41.277Z,21.97
2018-06-16T05:14:12.923Z,21.96
2018-06-16T05:14:44.524Z,21.96
2018-06-16T05:15:16.134Z,21.96
2018-06-16T05:15:47.790Z,21.93
2018-06-16T05:16:19.397Z,21.96
2018-06-16T05:16:51.011Z,21.96
2018-06-16T05:17:22.600Z,21.96
2018-06-16T05:17:54.204Z,21.95
2018-06-16T05:18:25.790Z,21.94
2018-06-16T05:18:57.397Z,21.94
2018-06-16T05:19:28.968Z,21.93
2018-06-16T05:20:00.549Z,21.94
2018-06-16T05:20:32.139Z,21.92
2018-06-16T05:21:03.766Z,21.93
2018-06-16T05:21:35.393Z,21.94
2018-06-16T05:22:06.997Z,21.95
2018-06-16T05:22:38.613Z,21.95
2018-06-16T05:23:10.222Z,21.94
2018-06-16T05:23:41.824Z,21.94
2018-06-16T05:24:13.399Z,21.94
2018-06-16T05:24:45.008Z,21.94
2018-06-16T05:25:16.626Z,21.94
2018-06-16T05:25:48.217Z,21.93
2018-06-16T05:26:19.814Z,21.93
2018-06-16T05:26:51.390Z,21.94
2018-06-16T05:27:22.978Z,21.94
2018-06-16T05:27:54.585Z,21.95
2018-06-16T05:28:26.208Z,21.95
2018-06-16T05:28:57.817Z,21.98
2018-06-16T05:29:29.421Z,21.95
2018-06-16T05:30:01.025Z,21.97
2018-06-16T05:30:32.629Z,21.98
2018-06-16T05:31:04.232Z,21.99
2018-06-16T05:31:35.841Z,21.98
2018-06-16T05:32:07.417Z,21.98
2018-06-16T05:32:38.988Z,21.98
2018-06-16T05:33:10.570Z,21.99
2018-06-16T05:33:42.178Z,21.99
2018-06-16T05:34:13.761Z,21.98
2018-06-16T05:34:45.345Z,21.98
2018-06-16T05:35:16.950Z,21.98
2018-06-16T05:35:48.581Z,21.97
2018-06-16T05:36:20.148Z,21.96
2018-06-16T05:36:51.723Z,21.96
2018-06-16T05:37:23.302Z,21.96
2018-06-16T05:37:54.881Z,21.96
2018-06-16T05:38:26.466Z,21.97
2018-06-16T05:38:58.037Z,21.96
2018-06-16T05:39:29.617Z,21.95
2018-06-16T05:40:01.219Z,21.94
2018-06-16T05:40:32.820Z,21.94
2018-06-16T05:41:04.409Z,21.94
2018-06-16T05:41:35.990Z,21.95
2018-06-16T05:42:07.612Z,21.94
2018-06-16T05:42:39.204Z,21.95
2018-06-16T05:43:10.794Z,21.95
2018-06-16T05:43:42.374Z,21.95
2018-06-16T05:44:13.950Z,21.97
2018-06-16T05:44:45.537Z,21.96
2018-06-16T05:45:17.150Z,21.97
2018-06-16T05:45:48.728Z,21.94
2018-06-16T05:46:20.310Z,21.96
2018-06-16T05:46:51.953Z,21.95
2018-06-16T05:47:23.556Z,21.95
2018-06-16T05:47:55.146Z,21.96
2018-06-16T05:48:26.729Z,21.96
2018-06-16T05:48:59.084Z,21.95
2018-06-16T05:49:30.854Z,21.96
2018-06-16T05:50:12.701Z,21.93
2018-06-16T05:50:44.305Z,21.95
2018-06-16T05:51:15.917Z,21.95
2018-06-16T05:51:47.521Z,21.95
2018-06-16T05:52:19.150Z,21.95
2018-06-16T05:52:50.747Z,21.96
2018-06-16T05:53:22.352Z,21.95
2018-06-16T05:53:53.955Z,21.94
2018-06-16T05:54:25.630Z,21.95
2018-06-16T05:54:57.210Z,21.96
2018-06-16T05:55:39.209Z,21.96
2018-06-16T05:56:10.790Z,21.97
2018-06-16T05:56:42.995Z,21.98
2018-06-16T05:57:14.777Z,21.98
2018-06-16T05:57:46.414Z,21.98
2018-06-16T05:58:18.013Z,22.00
2018-06-16T05:58:49.956Z,22.01
2018-06-16T05:59:21.566Z,22.00
2018-06-16T05:59:53.169Z,21.99
2018-06-16T06:00:24.823Z,22.01
2018-06-16T06:00:56.389Z,22.01
2018-06-16T06:01:27.993Z,22.00
2018-06-16T06:01:59.605Z,22.01
2018-06-16T06:02:31.180Z,22.00
2018-06-16T06:03:02.802Z,22.01
2018-06-16T06:03:34.384Z,21.99
2018-06-16T06:04:05.962Z,21.98
2018-06-16T06:04:37.609Z,21.99
2018-06-16T06:05:09.196Z,22.00
2018-06-16T06:05:40.776Z,22.00
2018-06-16T06:06:12.347Z,22.01
2018-06-16T06:06:43.961Z,22.01
2018-06-16T06:07:15.569Z,22.02
2018-06-16T06:07:47.153Z,22.05
2018-06-16T06:08:18.748Z,22.13
2018-06-16T06:08:50.357Z,22.21
2018-06-16T06:09:21.968Z,22.19
2018-06-16T06:09:53.537Z,22.15
2018-06-16T06:10:25.155Z,22.13
2018-06-16T06:10:56.744Z,22.11
2018-06-16T06:11:28.325Z,22.10
2018-06-16T06:11:59.896Z,22.09
2018-06-16T06:12:31.527Z,22.07
2018-06-16T06:13:03.129Z,22.07
2018-06-16T06:13:34.735Z,22.06
2018-06-16T06:14:07.349Z,22.06
2018-06-16T06:14:38.945Z,22.05
2018-06-16T06:15:10.614Z,21.96
2018-06-16T06:15:42.206Z,22.04
2018-06-16T06:16:13.803Z,22.03
2018-06-16T06:16:45.462Z,22.04
2018-06-16T06:17:17.065Z,22.03
2018-06-16T06:17:48.645Z,22.04
2018-06-16T06:18:20.225Z,22.03
2018-06-16T06:18:51.821Z,22.04
2018-06-16T06:19:23.409Z,22.02
2018-06-16T06:19:55.060Z,22.03
2018-06-16T06:20:26.713Z,22.03
2018-06-16T06:20:58.294Z,22.04
2018-06-16T06:21:29.898Z,22.04
2018-06-16T06:22:01.492Z,22.05
2018-06-16T06:22:33.146Z,22.05
2018-06-16T06:23:04.730Z,22.05
2018-06-16T06:23:36.332Z,22.06
2018-06-16T06:24:07.931Z,22.05
2018-06-16T06:24:39.508Z,22.03
2018-06-16T06:25:11.088Z,22.04
2018-06-16T06:25:43.848Z,22.03
2018-06-16T06:26:15.434Z,22.06
2018-06-16T06:26:47.004Z,22.05
2018-06-16T06:27:19.178Z,22.04
2018-06-16T06:27:50.785Z,22.04
2018-06-16T06:28:22.385Z,22.03
2018-06-16T06:28:53.980Z,22.03
2018-06-16T06:29:25.579Z,22.03
2018-06-16T06:29:57.189Z,22.06
2018-06-16T06:30:28.804Z,22.07
2018-06-16T06:31:00.424Z,22.10
2018-06-16T06:31:31.996Z,22.11
2018-06-16T06:32:03.633Z,22.10
2018-06-16T06:32:35.192Z,22.09
2018-06-16T06:33:06.774Z,22.10
2018-06-16T06:33:38.410Z,22.10
2018-06-16T06:34:10.008Z,22.09
2018-06-16T06:34:41.618Z,22.09
2018-06-16T06:35:13.230Z,22.10
2018-06-16T06:35:44.823Z,22.08
2018-06-16T06:36:16.420Z,22.08
2018-06-16T06:36:48.033Z,22.08
2018-06-16T06:37:19.646Z,22.08
2018-06-16T06:37:51.230Z,22.08
2018-06-16T06:38:22.808Z,22.09
2018-06-16T06:38:54.449Z,22.09
2018-06-16T06:39:26.089Z,22.09
2018-06-16T06:39:57.701Z,22.10
2018-06-16T06:40:29.275Z,22.11
2018-06-16T06:41:00.862Z,22.11
2018-06-16T06:41:32.476Z,22.10
2018-06-16T06:42:04.065Z,22.11
2018-06-16T06:42:35.673Z,22.12
2018-06-16T06:43:07.279Z,22.12
2018-06-16T06:43:38.865Z,22.10
2018-06-16T06:44:10.497Z,22.10
2018-06-16T06:44:42.080Z,22.11
2018-06-16T06:45:13.684Z,22.11
2018-06-16T06:45:45.273Z,22.11
2018-06-16T06:46:16.850Z,22.12
2018-06-16T06:46:48.417Z,22.12
2018-06-16T06:47:20.022Z,22.09